Terminal Aerodrome Forecast
Issued by NWS Mobile, AL

Home | Current Version | Previous Version | Text Only | Print | Product List | Glossary On
Versions: 1 2 3 4 5 6 7 8 9 10 11 12 13 14 15 16
000
FTUS44 KMOB 291142
TAFMOB
TAF
KMOB 291142Z 2912/3012 03006KT P6SM FEW070 FEW200
     FM291600 08010G17KT P6SM SCT040 SCT250
     FM292000 08008KT P6SM VCTS SCT040CB BKN250
     FM292300 08005KT P6SM SCT250
     FM300000 05003KT P6SM SKC=

USA.gov is the U.S. government's official web portal to all federal, state and local government web resources and services.